sensor_id;sensor_type;location;lat;lon;timestamp;pressure;altitude;pressure_sealevel;temperature;humidity
11114;BME280;5610;52.154;9.198;2023-03-18T00:01:16;99984.09;;;12.72;83.66
11114;BME280;5610;52.154;9.198;2023-03-18T00:04:01;99982.63;;;12.79;83.61
11114;BME280;5610;52.154;9.198;2023-03-18T00:06:47;99993.56;;;12.87;84.54
11114;BME280;5610;52.154;9.198;2023-03-18T00:09:34;99984.19;;;12.93;83.34
11114;BME280;5610;52.154;9.198;2023-03-18T00:12:19;99997.78;;;13.01;86.75
11114;BME280;5610;52.154;9.198;2023-03-18T00:15:05;99989.63;;;13.03;88.51
11114;BME280;5610;52.154;9.198;2023-03-18T00:17:51;99993.28;;;13.02;93.50
11114;BME280;5610;52.154;9.198;2023-03-18T00:20:36;99993.41;;;12.89;95.99
11114;BME280;5610;52.154;9.198;2023-03-18T00:23:24;99994.91;;;12.82;93.51
11114;BME280;5610;52.154;9.198;2023-03-18T00:26:12;99992.25;;;12.71;89.22
11114;BME280;5610;52.154;9.198;2023-03-18T00:28:59;100000.38;;;12.80;89.69
11114;BME280;5610;52.154;9.198;2023-03-18T00:31:44;100011.78;;;12.82;90.28
11114;BME280;5610;52.154;9.198;2023-03-18T00:34:30;100001.34;;;12.90;91.53
11114;BME280;5610;52.154;9.198;2023-03-18T00:37:16;100012.25;;;12.99;90.38
11114;BME280;5610;52.154;9.198;2023-03-18T00:40:13;100016.63;;;13.11;93.78
11114;BME280;5610;52.154;9.198;2023-03-18T00:43:04;100020.84;;;13.25;94.23
11114;BME280;5610;52.154;9.198;2023-03-18T00:45:51;100023.47;;;13.36;94.74
11114;BME280;5610;52.154;9.198;2023-03-18T00:48:37;100025.34;;;13.24;99.65
11114;BME280;5610;52.154;9.198;2023-03-18T00:51:23;100018.25;;;13.34;100.00
11114;BME280;5610;52.154;9.198;2023-03-18T00:54:10;100008.41;;;13.35;100.00
11114;BME280;5610;52.154;9.198;2023-03-18T00:56:56;100017.75;;;13.40;100.00
11114;BME280;5610;52.154;9.198;2023-03-18T00:59:43;100004.19;;;13.21;100.00
11114;BME280;5610;52.154;9.198;2023-03-18T01:02:28;100017.69;;;13.08;100.00
11114;BME280;5610;52.154;9.198;2023-03-18T01:05:14;100009.22;;;12.92;100.00
11114;BME280;5610;52.154;9.198;2023-03-18T01:08:00;100018.84;;;12.83;100.00
11114;BME280;5610;52.154;9.198;2023-03-18T01:10:46;100023.00;;;12.65;100.00
11114;BME280;5610;52.154;9.198;2023-03-18T01:13:31;100022.16;;;12.64;100.00
11114;BME280;5610;52.154;9.198;2023-03-18T01:16:19;100032.09;;;12.40;100.00
11114;BME280;5610;52.154;9.198;2023-03-18T01:19:04;100032.59;;;12.34;100.00
11114;BME280;5610;52.154;9.198;2023-03-18T01:21:50;100032.47;;;12.35;100.00
11114;BME280;5610;52.154;9.198;2023-03-18T01:24:35;100030.88;;;12.33;100.00
11114;BME280;5610;52.154;9.198;2023-03-18T01:27:21;100023.97;;;12.30;100.00
11114;BME280;5610;52.154;9.198;2023-03-18T01:30:09;100025.66;;;12.31;100.00
11114;BME280;5610;52.154;9.198;2023-03-18T01:32:57;100030.53;;;12.26;100.00
11114;BME280;5610;52.154;9.198;2023-03-18T01:35:45;100028.72;;;12.27;100.00
11114;BME280;5610;52.154;9.198;2023-03-18T01:38:33;100028.94;;;12.13;100.00
11114;BME280;5610;52.154;9.198;2023-03-18T01:41:26;100029.66;;;12.15;100.00
11114;BME280;5610;52.154;9.198;2023-03-18T01:44:13;100032.81;;;12.08;100.00
11114;BME280;5610;52.154;9.198;2023-03-18T01:46:59;100026.16;;;12.14;100.00
11114;BME280;5610;52.154;9.198;2023-03-18T01:49:48;100026.75;;;12.06;100.00
11114;BME280;5610;52.154;9.198;2023-03-18T01:52:36;100027.94;;;12.02;100.00
11114;BME280;5610;52.154;9.198;2023-03-18T01:55:24;100018.81;;;12.05;100.00
11114;BME280;5610;52.154;9.198;2023-03-18T01:58:14;100028.53;;;11.95;100.00
11114;BME280;5610;52.154;9.198;2023-03-18T02:01:06;100028.78;;;11.92;100.00
11114;BME280;5610;52.154;9.198;2023-03-18T02:03:54;100021.50;;;11.94;100.00
11114;BME280;5610;52.154;9.198;2023-03-18T02:06:42;100029.69;;;11.79;100.00
11114;BME280;5610;52.154;9.198;2023-03-18T02:09:28;100027.56;;;11.85;100.00
11114;BME280;5610;52.154;9.198;2023-03-18T02:12:18;100027.94;;;11.91;100.00
11114;BME280;5610;52.154;9.198;2023-03-18T02:15:09;100031.06;;;11.96;100.00
11114;BME280;5610;52.154;9.198;2023-03-18T02:18:02;100024.41;;;12.02;100.00
11114;BME280;5610;52.154;9.198;2023-03-18T02:20:59;100034.13;;;11.92;100.00
11114;BME280;5610;52.154;9.198;2023-03-18T02:23:55;100019.72;;;12.05;100.00
11114;BME280;5610;52.154;9.198;2023-03-18T02:26:47;100019.19;;;12.12;100.00
11114;BME280;5610;52.154;9.198;2023-03-18T02:29:44;100020.06;;;12.12;100.00
11114;BME280;5610;52.154;9.198;2023-03-18T02:32:34;100026.97;;;12.03;100.00
11114;BME280;5610;52.154;9.198;2023-03-18T02:35:21;100039.00;;;12.09;100.00
11114;BME280;5610;52.154;9.198;2023-03-18T02:38:09;100031.22;;;12.17;100.00
11114;BME280;5610;52.154;9.198;2023-03-18T02:40:54;100024.16;;;12.05;100.00
11114;BME280;5610;52.154;9.198;2023-03-18T02:43:46;100027.09;;;12.02;100.00
11114;BME280;5610;52.154;9.198;2023-03-18T02:46:38;100033.53;;;11.99;100.00
11114;BME280;5610;52.154;9.198;2023-03-18T02:49:27;100024.53;;;12.00;100.00
11114;BME280;5610;52.154;9.198;2023-03-18T02:52:14;100035.81;;;12.04;100.00
11114;BME280;5610;52.154;9.198;2023-03-18T02:54:59;100042.22;;;11.90;100.00
11114;BME280;5610;52.154;9.198;2023-03-18T02:57:46;100042.72;;;11.95;100.00
11114;BME280;5610;52.154;9.198;2023-03-18T03:00:31;100046.25;;;11.96;100.00
11114;BME280;5610;52.154;9.198;2023-03-18T03:03:18;100043.44;;;11.97;100.00
11114;BME280;5610;52.154;9.198;2023-03-18T03:06:03;100044.69;;;11.93;100.00
11114;BME280;5610;52.154;9.198;2023-03-18T03:08:49;100046.84;;;11.88;100.00
11114;BME280;5610;52.154;9.198;2023-03-18T03:11:35;100044.63;;;11.82;100.00
11114;BME280;5610;52.154;9.198;2023-03-18T03:14:28;100049.22;;;11.80;100.00
11114;BME280;5610;52.154;9.198;2023-03-18T03:17:17;100055.44;;;11.80;100.00
11114;BME280;5610;52.154;9.198;2023-03-18T03:20:05;100046.16;;;11.73;100.00
11114;BME280;5610;52.154;9.198;2023-03-18T03:22:50;100040.19;;;11.70;100.00
11114;BME280;5610;52.154;9.198;2023-03-18T03:25:36;100042.50;;;11.74;100.00
11114;BME280;5610;52.154;9.198;2023-03-18T03:28:22;100045.44;;;11.71;100.00
11114;BME280;5610;52.154;9.198;2023-03-18T03:31:09;100048.28;;;11.57;100.00
11114;BME280;5610;52.154;9.198;2023-03-18T03:33:54;100051.16;;;11.54;100.00
11114;BME280;5610;52.154;9.198;2023-03-18T03:36:41;100049.34;;;11.54;100.00
11114;BME280;5610;52.154;9.198;2023-03-18T03:39:27;100045.69;;;11.44;100.00
11114;BME280;5610;52.154;9.198;2023-03-18T03:42:12;100042.28;;;11.42;100.00
11114;BME280;5610;52.154;9.198;2023-03-18T03:44:58;100045.53;;;11.35;100.00
11114;BME280;5610;52.154;9.198;2023-03-18T03:47:43;100058.94;;;11.33;100.00
11114;BME280;5610;52.154;9.198;2023-03-18T03:50:30;100047.84;;;11.39;100.00
11114;BME280;5610;52.154;9.198;2023-03-18T03:53:17;100062.00;;;11.40;100.00
11114;BME280;5610;52.154;9.198;2023-03-18T03:56:03;100051.75;;;11.46;100.00
11114;BME280;5610;52.154;9.198;2023-03-18T03:58:50;100052.38;;;11.50;100.00
11114;BME280;5610;52.154;9.198;2023-03-18T04:01:35;100059.53;;;11.49;100.00
11114;BME280;5610;52.154;9.198;2023-03-18T04:04:21;100057.19;;;11.45;100.00
11114;BME280;5610;52.154;9.198;2023-03-18T04:07:07;100061.69;;;11.44;100.00
11114;BME280;5610;52.154;9.198;2023-03-18T04:09:54;100066.06;;;11.45;100.00
11114;BME280;5610;52.154;9.198;2023-03-18T04:12:40;100059.34;;;11.40;100.00
11114;BME280;5610;52.154;9.198;2023-03-18T04:15:25;100071.00;;;11.39;100.00
11114;BME280;5610;52.154;9.198;2023-03-18T04:18:10;100068.66;;;11.34;100.00
11114;BME280;5610;52.154;9.198;2023-03-18T04:20:55;100062.44;;;11.22;100.00
11114;BME280;5610;52.154;9.198;2023-03-18T04:23:54;100062.91;;;11.27;100.00
11114;BME280;5610;52.154;9.198;2023-03-18T04:26:41;100055.00;;;11.15;100.00
11114;BME280;5610;52.154;9.198;2023-03-18T04:29:26;100060.09;;;11.18;100.00
11114;BME280;5610;52.154;9.198;2023-03-18T04:32:12;100062.47;;;11.10;100.00
11114;BME280;5610;52.154;9.198;2023-03-18T04:34:58;100067.38;;;11.03;100.00
11114;BME280;5610;52.154;9.198;2023-03-18T04:37:43;100065.97;;;10.86;100.00
11114;BME280;5610;52.154;9.198;2023-03-18T04:40:29;100066.50;;;10.79;100.00
11114;BME280;5610;52.154;9.198;2023-03-18T04:43:18;100063.59;;;10.82;100.00
11114;BME280;5610;52.154;9.198;2023-03-18T04:46:05;100065.09;;;10.86;100.00
11114;BME280;5610;52.154;9.198;2023-03-18T04:48:52;100065.31;;;10.83;100.00
11114;BME280;5610;52.154;9.198;2023-03-18T04:51:38;100070.56;;;10.71;100.00
11114;BME280;5610;52.154;9.198;2023-03-18T04:54:29;100076.63;;;10.73;100.00
11114;BME280;5610;52.154;9.198;2023-03-18T04:57:18;100085.78;;;10.69;100.00
11114;BME280;5610;52.154;9.198;2023-03-18T05:00:12;100083.97;;;10.70;100.00
11114;BME280;5610;52.154;9.198;2023-03-18T05:03:01;100089.72;;;10.64;100.00
11114;BME280;5610;52.154;9.198;2023-03-18T05:05:47;100088.69;;;10.66;100.00
11114;BME280;5610;52.154;9.198;2023-03-18T05:08:36;100086.22;;;10.63;100.00
11114;BME280;5610;52.154;9.198;2023-03-18T05:11:22;100075.91;;;10.59;100.00
11114;BME280;5610;52.154;9.198;2023-03-18T05:14:08;100088.81;;;10.65;100.00
11114;BME280;5610;52.154;9.198;2023-03-18T05:17:00;100097.53;;;10.67;100.00
11114;BME280;5610;52.154;9.198;2023-03-18T05:19:48;100092.41;;;10.64;100.00
11114;BME280;5610;52.154;9.198;2023-03-18T05:22:38;100095.28;;;10.61;100.00
11114;BME280;5610;52.154;9.198;2023-03-18T05:25:31;100089.84;;;10.62;100.00
11114;BME280;5610;52.154;9.198;2023-03-18T05:28:17;100096.25;;;10.60;100.00
11114;BME280;5610;52.154;9.198;2023-03-18T05:31:10;100092.31;;;10.53;100.00
11114;BME280;5610;52.154;9.198;2023-03-18T05:33:59;100085.81;;;10.57;100.00
11114;BME280;5610;52.154;9.198;2023-03-18T05:36:49;100094.66;;;10.57;100.00
11114;BME280;5610;52.154;9.198;2023-03-18T05:39:36;100097.34;;;10.57;100.00
11114;BME280;5610;52.154;9.198;2023-03-18T05:42:26;100098.06;;;10.59;100.00
11114;BME280;5610;52.154;9.198;2023-03-18T05:45:12;100093.91;;;10.55;100.00
11114;BME280;5610;52.154;9.198;2023-03-18T05:48:06;100101.16;;;10.53;100.00
11114;BME280;5610;52.154;9.198;2023-03-18T05:51:01;100093.59;;;10.47;100.00
11114;BME280;5610;52.154;9.198;2023-03-18T05:53:49;100101.81;;;10.44;100.00
11114;BME280;5610;52.154;9.198;2023-03-18T05:56:44;100102.78;;;10.43;100.00
11114;BME280;5610;52.154;9.198;2023-03-18T05:59:30;100119.19;;;10.37;100.00
11114;BME280;5610;52.154;9.198;2023-03-18T06:02:17;100112.03;;;10.37;100.00
11114;BME280;5610;52.154;9.198;2023-03-18T06:05:03;100100.31;;;10.40;100.00
11114;BME280;5610;52.154;9.198;2023-03-18T06:07:50;100113.19;;;10.33;100.00
11114;BME280;5610;52.154;9.198;2023-03-18T06:10:36;100118.63;;;10.32;100.00
11114;BME280;5610;52.154;9.198;2023-03-18T06:13:21;100122.38;;;10.29;100.00
11114;BME280;5610;52.154;9.198;2023-03-18T06:16:07;100128.63;;;10.28;100.00
11114;BME280;5610;52.154;9.198;2023-03-18T06:18:52;100122.38;;;10.29;100.00
11114;BME280;5610;52.154;9.198;2023-03-18T06:21:38;100126.31;;;10.36;100.00
11114;BME280;5610;52.154;9.198;2023-03-18T06:24:25;100129.06;;;10.35;100.00
11114;BME280;5610;52.154;9.198;2023-03-18T06:27:11;100123.00;;;10.45;100.00
11114;BME280;5610;52.154;9.198;2023-03-18T06:30:00;100130.56;;;10.52;100.00
11114;BME280;5610;52.154;9.198;2023-03-18T06:32:47;100131.97;;;10.57;100.00
11114;BME280;5610;52.154;9.198;2023-03-18T06:35:33;100131.63;;;10.75;100.00
11114;BME280;5610;52.154;9.198;2023-03-18T06:38:18;100133.00;;;10.93;100.00
11114;BME280;5610;52.154;9.198;2023-03-18T06:41:05;100140.09;;;11.05;100.00
11114;BME280;5610;52.154;9.198;2023-03-18T06:43:55;100147.13;;;11.19;100.00
11114;BME280;5610;52.154;9.198;2023-03-18T06:46:42;100149.22;;;11.26;100.00
11114;BME280;5610;52.154;9.198;2023-03-18T06:49:28;100155.81;;;11.34;100.00
11114;BME280;5610;52.154;9.198;2023-03-18T06:52:22;100146.19;;;11.44;100.00
11114;BME280;5610;52.154;9.198;2023-03-18T06:55:12;100148.91;;;11.55;100.00
11114;BME280;5610;52.154;9.198;2023-03-18T06:58:02;100148.75;;;11.69;100.00
11114;BME280;5610;52.154;9.198;2023-03-18T07:00:58;100155.69;;;11.85;100.00
11114;BME280;5610;52.154;9.198;2023-03-18T07:03:48;100154.25;;;11.92;100.00
11114;BME280;5610;52.154;9.198;2023-03-18T07:06:34;100162.34;;;11.90;100.00
11114;BME280;5610;52.154;9.198;2023-03-18T07:09:20;100161.19;;;11.94;100.00
11114;BME280;5610;52.154;9.198;2023-03-18T07:12:11;100164.56;;;11.96;100.00
11114;BME280;5610;52.154;9.198;2023-03-18T07:15:00;100175.66;;;12.03;100.00
11114;BME280;5610;52.154;9.198;2023-03-18T07:17:45;100175.06;;;12.10;100.00
11114;BME280;5610;52.154;9.198;2023-03-18T07:20:30;100176.44;;;12.16;100.00
11114;BME280;5610;52.154;9.198;2023-03-18T07:23:17;100176.88;;;12.34;100.00
11114;BME280;5610;52.154;9.198;2023-03-18T07:26:02;100180.41;;;12.46;100.00
11114;BME280;5610;52.154;9.198;2023-03-18T07:28:48;100185.28;;;12.52;100.00
11114;BME280;5610;52.154;9.198;2023-03-18T07:31:35;100181.66;;;12.64;100.00
11114;BME280;5610;52.154;9.198;2023-03-18T07:34:21;100184.72;;;12.82;100.00
11114;BME280;5610;52.154;9.198;2023-03-18T07:37:06;100183.03;;;12.92;100.00
11114;BME280;5610;52.154;9.198;2023-03-18T07:39:51;100190.22;;;13.03;100.00
11114;BME280;5610;52.154;9.198;2023-03-18T07:42:37;100185.47;;;13.06;100.00
11114;BME280;5610;52.154;9.198;2023-03-18T07:45:22;100196.56;;;13.24;100.00
11114;BME280;5610;52.154;9.198;2023-03-18T07:48:09;100195.72;;;13.24;100.00
11114;BME280;5610;52.154;9.198;2023-03-18T07:50:54;100208.75;;;13.39;100.00
11114;BME280;5610;52.154;9.198;2023-03-18T07:53:40;100215.41;;;13.56;100.00
11114;BME280;5610;52.154;9.198;2023-03-18T07:56:25;100213.16;;;13.72;100.00
11114;BME280;5610;52.154;9.198;2023-03-18T07:59:10;100207.59;;;14.08;100.00
11114;BME280;5610;52.154;9.198;2023-03-18T08:01:56;100209.66;;;14.36;100.00
11114;BME280;5610;52.154;9.198;2023-03-18T08:04:42;100203.88;;;14.31;100.00
11114;BME280;5610;52.154;9.198;2023-03-18T08:07:29;100203.94;;;14.41;100.00
11114;BME280;5610;52.154;9.198;2023-03-18T08:10:15;100208.34;;;14.30;100.00
11114;BME280;5610;52.154;9.198;2023-03-18T08:13:00;100214.50;;;14.42;100.00
11114;BME280;5610;52.154;9.198;2023-03-18T08:15:45;100228.41;;;14.47;100.00
11114;BME280;5610;52.154;9.198;2023-03-18T08:18:31;100225.59;;;14.70;100.00
11114;BME280;5610;52.154;9.198;2023-03-18T08:21:17;100227.81;;;14.86;100.00
11114;BME280;5610;52.154;9.198;2023-03-18T08:24:03;100229.56;;;15.17;100.00
11114;BME280;5610;52.154;9.198;2023-03-18T08:26:49;100235.19;;;15.14;100.00
11114;BME280;5610;52.154;9.198;2023-03-18T08:29:34;100239.56;;;15.46;100.00
11114;BME280;5610;52.154;9.198;2023-03-18T08:32:19;100234.03;;;15.78;100.00
11114;BME280;5610;52.154;9.198;2023-03-18T08:35:05;100236.53;;;16.10;100.00
11114;BME280;5610;52.154;9.198;2023-03-18T08:37:53;100231.44;;;16.16;100.00
11114;BME280;5610;52.154;9.198;2023-03-18T08:40:39;100235.53;;;16.40;100.00
11114;BME280;5610;52.154;9.198;2023-03-18T08:43:25;100239.91;;;16.12;100.00
11114;BME280;5610;52.154;9.198;2023-03-18T08:46:11;100248.84;;;16.32;100.00
11114;BME280;5610;52.154;9.198;2023-03-18T08:48:57;100248.00;;;16.31;100.00
11114;BME280;5610;52.154;9.198;2023-03-18T08:51:42;100241.59;;;15.93;100.00
11114;BME280;5610;52.154;9.198;2023-03-18T08:54:29;100245.69;;;15.88;100.00
11114;BME280;5610;52.154;9.198;2023-03-18T08:57:15;100249.38;;;16.06;100.00
11114;BME280;5610;52.154;9.198;2023-03-18T09:00:00;100238.56;;;15.68;100.00
11114;BME280;5610;52.154;9.198;2023-03-18T09:02:45;100247.22;;;15.90;100.00
11114;BME280;5610;52.154;9.198;2023-03-18T09:05:31;100240.34;;;16.17;100.00
11114;BME280;5610;52.154;9.198;2023-03-18T09:08:17;100242.59;;;16.89;100.00
11114;BME280;5610;52.154;9.198;2023-03-18T09:11:04;100245.03;;;17.29;100.00
11114;BME280;5610;52.154;9.198;2023-03-18T09:13:50;100259.81;;;17.16;100.00
11114;BME280;5610;52.154;9.198;2023-03-18T09:16:36;100250.59;;;17.28;100.00
11114;BME280;5610;52.154;9.198;2023-03-18T09:19:21;100254.44;;;17.53;100.00
11114;BME280;5610;52.154;9.198;2023-03-18T09:22:07;100263.91;;;17.29;100.00
11114;BME280;5610;52.154;9.198;2023-03-18T09:24:53;100251.06;;;17.14;100.00
11114;BME280;5610;52.154;9.198;2023-03-18T09:27:39;100256.50;;;16.85;100.00
11114;BME280;5610;52.154;9.198;2023-03-18T09:30:25;100272.06;;;16.42;100.00
11114;BME280;5610;52.154;9.198;2023-03-18T09:33:10;100266.41;;;16.74;100.00
11114;BME280;5610;52.154;9.198;2023-03-18T09:35:57;100247.50;;;17.13;100.00
11114;BME280;5610;52.154;9.198;2023-03-18T09:38:42;100277.84;;;17.52;100.00
11114;BME280;5610;52.154;9.198;2023-03-18T09:41:37;100267.00;;;18.17;97.25
11114;BME280;5610;52.154;9.198;2023-03-18T09:44:30;100271.63;;;18.70;90.88
11114;BME280;5610;52.154;9.198;2023-03-18T09:47:27;100264.50;;;18.51;92.13
11114;BME280;5610;52.154;9.198;2023-03-18T09:50:28;100273.25;;;18.18;90.00
11114;BME280;5610;52.154;9.198;2023-03-18T09:53:20;100274.34;;;18.60;90.98
11114;BME280;5610;52.154;9.198;2023-03-18T09:56:12;100279.94;;;18.77;90.51
11114;BME280;5610;52.154;9.198;2023-03-18T09:59:03;100283.38;;;18.87;86.42
11114;BME280;5610;52.154;9.198;2023-03-18T10:01:53;100274.25;;;19.58;80.14
11114;BME280;5610;52.154;9.198;2023-03-18T10:04:43;100273.63;;;20.22;75.19
11114;BME280;5610;52.154;9.198;2023-03-18T10:07:32;100277.31;;;20.05;75.82
11114;BME280;5610;52.154;9.198;2023-03-18T10:10:23;100276.38;;;20.39;74.33
11114;BME280;5610;52.154;9.198;2023-03-18T10:13:14;100281.19;;;21.02;74.99
11114;BME280;5610;52.154;9.198;2023-03-18T10:16:03;100279.66;;;20.59;70.87
11114;BME280;5610;52.154;9.198;2023-03-18T10:18:53;100279.31;;;20.62;70.85
11114;BME280;5610;52.154;9.198;2023-03-18T10:21:42;100289.38;;;20.19;70.50
11114;BME280;5610;52.154;9.198;2023-03-18T10:24:35;100290.66;;;19.98;70.19
11114;BME280;5610;52.154;9.198;2023-03-18T10:27:28;100301.97;;;20.44;67.40
11114;BME280;5610;52.154;9.198;2023-03-18T10:30:28;100295.56;;;19.61;68.06
11114;BME280;5610;52.154;9.198;2023-03-18T10:33:21;100300.63;;;19.64;70.60
11114;BME280;5610;52.154;9.198;2023-03-18T10:36:11;100299.81;;;20.06;66.82
11114;BME280;5610;52.154;9.198;2023-03-18T10:39:01;100294.22;;;20.74;65.62
11114;BME280;5610;52.154;9.198;2023-03-18T10:41:48;100293.44;;;22.40;59.67
11114;BME280;5610;52.154;9.198;2023-03-18T10:44:36;100303.13;;;22.42;57.82
11114;BME280;5610;52.154;9.198;2023-03-18T10:47:27;100297.94;;;22.25;57.16
11114;BME280;5610;52.154;9.198;2023-03-18T10:50:20;100290.81;;;21.12;59.85
11114;BME280;5610;52.154;9.198;2023-03-18T10:53:17;100291.41;;;22.03;58.47
11114;BME280;5610;52.154;9.198;2023-03-18T10:56:05;100297.31;;;22.68;56.98
11114;BME280;5610;52.154;9.198;2023-03-18T10:58:51;100303.97;;;22.66;55.23
11114;BME280;5610;52.154;9.198;2023-03-18T11:01:37;100308.56;;;21.48;57.68
11114;BME280;5610;52.154;9.198;2023-03-18T11:04:23;100304.75;;;20.26;61.15
11114;BME280;5610;52.154;9.198;2023-03-18T11:07:13;100309.13;;;18.81;67.06
11114;BME280;5610;52.154;9.198;2023-03-18T11:10:12;100305.75;;;17.98;73.88
11114;BME280;5610;52.154;9.198;2023-03-18T11:12:58;100301.81;;;17.55;79.57
11114;BME280;5610;52.154;9.198;2023-03-18T11:15:48;100302.53;;;17.48;84.11
11114;BME280;5610;52.154;9.198;2023-03-18T11:18:36;100303.84;;;17.34;86.07
11114;BME280;5610;52.154;9.198;2023-03-18T11:21:21;100301.47;;;17.21;85.92
11114;BME280;5610;52.154;9.198;2023-03-18T11:24:24;100308.16;;;17.54;84.33
11114;BME280;5610;52.154;9.198;2023-03-18T11:27:33;100303.66;;;18.55;79.15
11114;BME280;5610;52.154;9.198;2023-03-18T11:30:21;100312.09;;;21.64;63.57
11114;BME280;5610;52.154;9.198;2023-03-18T11:33:13;100303.72;;;23.36;54.25
11114;BME280;5610;52.154;9.198;2023-03-18T11:36:01;100301.88;;;26.01;48.37
11114;BME280;5610;52.154;9.198;2023-03-18T11:38:55;100301.78;;;28.08;43.03
11114;BME280;5610;52.154;9.198;2023-03-18T11:41:41;100292.28;;;29.19;40.93
11114;BME280;5610;52.154;9.198;2023-03-18T11:44:30;100281.47;;;31.76;37.38
11114;BME280;5610;52.154;9.198;2023-03-18T11:47:19;100279.19;;;34.10;34.15
11114;BME280;5610;52.154;9.198;2023-03-18T11:50:18;100275.94;;;35.26;32.50
11114;BME280;5610;52.154;9.198;2023-03-18T11:53:09;100275.75;;;36.83;29.92
11114;BME280;5610;52.154;9.198;2023-03-18T11:56:00;100271.78;;;37.81;30.27
11114;BME280;5610;52.154;9.198;2023-03-18T11:59:17;100279.69;;;33.63;31.63
11114;BME280;5610;52.154;9.198;2023-03-18T12:02:29;100283.75;;;31.21;34.86
11114;BME280;5610;52.154;9.198;2023-03-18T12:05:38;100275.41;;;30.32;35.20
11114;BME280;5610;52.154;9.198;2023-03-18T12:08:32;100273.66;;;32.65;34.75
11114;BME280;5610;52.154;9.198;2023-03-18T12:11:33;100263.84;;;34.19;32.36
11114;BME280;5610;52.154;9.198;2023-03-18T12:14:29;100276.19;;;32.38;33.73
11114;BME280;5610;52.154;9.198;2023-03-18T12:17:27;100271.38;;;34.02;33.14
11114;BME280;5610;52.154;9.198;2023-03-18T12:20:30;100266.56;;;35.32;31.54
11114;BME280;5610;52.154;9.198;2023-03-18T12:23:38;100270.66;;;32.67;32.92
11114;BME280;5610;52.154;9.198;2023-03-18T12:26:30;100273.91;;;29.81;36.12
11114;BME280;5610;52.154;9.198;2023-03-18T12:29:47;100284.50;;;27.17;39.19
11114;BME280;5610;52.154;9.198;2023-03-18T12:32:40;100277.88;;;28.67;37.94
11114;BME280;5610;52.154;9.198;2023-03-18T12:35:43;100277.31;;;29.40;36.74
11114;BME280;5610;52.154;9.198;2023-03-18T12:42:00;100273.78;;;33.76;31.87
11114;BME280;5610;52.154;9.198;2023-03-18T12:44:55;100272.72;;;35.39;30.46
11114;BME280;5610;52.154;9.198;2023-03-18T12:47:45;100262.22;;;34.23;31.58
11114;BME280;5610;52.154;9.198;2023-03-18T12:50:35;100267.53;;;35.16;31.46
11114;BME280;5610;52.154;9.198;2023-03-18T12:53:24;100261.56;;;36.39;28.56
11114;BME280;5610;52.154;9.198;2023-03-18T12:56:14;100258.75;;;35.24;30.15
11114;BME280;5610;52.154;9.198;2023-03-18T12:59:05;100261.25;;;33.13;32.06
11114;BME280;5610;52.154;9.198;2023-03-18T13:02:01;100262.88;;;32.80;31.73
11114;BME280;5610;52.154;9.198;2023-03-18T13:04:53;100255.88;;;34.50;30.65
11114;BME280;5610;52.154;9.198;2023-03-18T13:07:44;100260.13;;;35.64;29.68
11114;BME280;5610;52.154;9.198;2023-03-18T13:10:33;100259.50;;;35.14;29.48
11114;BME280;5610;52.154;9.198;2023-03-18T13:13:21;100256.44;;;33.81;31.04
11114;BME280;5610;52.154;9.198;2023-03-18T13:16:07;100265.13;;;35.25;29.90
11114;BME280;5610;52.154;9.198;2023-03-18T13:18:55;100254.84;;;37.67;27.27
11114;BME280;5610;52.154;9.198;2023-03-18T13:21:45;100249.22;;;38.82;26.18
11114;BME280;5610;52.154;9.198;2023-03-18T13:24:48;100260.34;;;36.10;28.01
11114;BME280;5610;52.154;9.198;2023-03-18T13:27:54;100253.81;;;36.72;27.10
11114;BME280;5610;52.154;9.198;2023-03-18T13:30:55;100248.56;;;36.85;27.08
11114;BME280;5610;52.154;9.198;2023-03-18T13:34:01;100249.13;;;35.32;29.58
11114;BME280;5610;52.154;9.198;2023-03-18T13:37:06;100246.22;;;32.59;32.66
11114;BME280;5610;52.154;9.198;2023-03-18T13:40:12;100250.09;;;34.51;29.15
11114;BME280;5610;52.154;9.198;2023-03-18T13:43:01;100249.28;;;36.25;28.69
11114;BME280;5610;52.154;9.198;2023-03-18T13:45:49;100244.28;;;36.22;28.84
11114;BME280;5610;52.154;9.198;2023-03-18T13:48:39;100243.34;;;33.93;29.76
11114;BME280;5610;52.154;9.198;2023-03-18T13:51:51;100245.72;;;34.06;28.89
11114;BME280;5610;52.154;9.198;2023-03-18T13:54:40;100244.16;;;31.80;31.61
11114;BME280;5610;52.154;9.198;2023-03-18T13:57:41;100253.53;;;30.37;33.45
11114;BME280;5610;52.154;9.198;2023-03-18T14:00:32;100246.50;;;32.29;30.73
11114;BME280;5610;52.154;9.198;2023-03-18T14:03:18;100243.75;;;34.88;28.87
11114;BME280;5610;52.154;9.198;2023-03-18T14:06:38;100241.47;;;34.21;29.17
11114;BME280;5610;52.154;9.198;2023-03-18T14:09:34;100240.66;;;34.47;28.84
11114;BME280;5610;52.154;9.198;2023-03-18T14:12:41;100232.31;;;33.54;29.31
11114;BME280;5610;52.154;9.198;2023-03-18T14:15:35;100226.50;;;33.34;29.90
11114;BME280;5610;52.154;9.198;2023-03-18T14:18:23;100225.97;;;33.76;30.50
11114;BME280;5610;52.154;9.198;2023-03-18T14:21:23;100235.91;;;35.07;28.75
11114;BME280;5610;52.154;9.198;2023-03-18T14:24:11;100234.56;;;36.09;27.70
11114;BME280;5610;52.154;9.198;2023-03-18T14:27:15;100235.53;;;36.86;26.48
11114;BME280;5610;52.154;9.198;2023-03-18T14:33:46;100229.31;;;36.28;27.55
11114;BME280;5610;52.154;9.198;2023-03-18T14:39:46;100236.53;;;37.56;25.29
11114;BME280;5610;52.154;9.198;2023-03-18T14:42:43;100234.13;;;34.90;28.36
11114;BME280;5610;52.154;9.198;2023-03-18T14:45:34;100236.75;;;31.10;31.45
11114;BME280;5610;52.154;9.198;2023-03-18T14:48:24;100228.97;;;28.26;35.68
11114;BME280;5610;52.154;9.198;2023-03-18T14:51:15;100233.56;;;26.63;38.20
11114;BME280;5610;52.154;9.198;2023-03-18T14:54:04;100228.47;;;25.44;38.90
11114;BME280;5610;52.154;9.198;2023-03-18T14:56:52;100232.78;;;23.75;41.57
11114;BME280;5610;52.154;9.198;2023-03-18T14:59:37;100247.44;;;22.69;44.02
11114;BME280;5610;52.154;9.198;2023-03-18T15:02:25;100237.69;;;21.98;45.42